Latest Weather Observations for Young

IDN60801

Issued at 11:32 pm EDT Saturday 16 December 2017 (issued every 30 minutes, with the page automatically refreshed every 10 minutes)

About weather observations | Map of weather stations | Latest weather observations for NSW | Other Formats
Station Details ID: 073138 Name: YOUNG AIRPORT Lat: -34.25 Lon: 148.25 Height: 379.6 m
Data from the previous 72 hours. | See also: Recent months at Young
Date/Time
EDT
Temp
°C
App
Temp
°C
Dew
Point
°C
Rel
Hum
%
Delta-T
°C
Wind Press
QNH
hPa
Press
MSL
hPa
Rain since
9am
mm
Dir  Spd
km/h
Gust
km/h
Spd
kts
Gust
kts
16/11:30pm 21.5 21.9 16.2 72 3.3 SSW 9 11 5 6 1013.1 1011.6 2.4
16/11:00pm 22.9 23.6 16.0 65 4.2 SSE 7 11 4 6 1013.1 1011.6 2.4
16/10:30pm 23.2 23.0 15.8 63 4.5 SSE 11 13 6 7 1013.2 1011.7 2.4
16/10:00pm 22.9 22.4 16.0 65 4.2 SSE 13 15 7 8 1013.1 1011.6 2.4
16/09:30pm 22.5 22.7 16.8 70 3.5 SE 11 15 6 8 1013.1 1011.6 2.4
16/09:00pm 22.6 22.6 17.3 72 3.3 SE 13 24 7 13 1013.0 1011.5 2.4
16/08:30pm 23.2 23.6 18.1 73 3.2 SE 13 19 7 10 1012.5 1011.0 2.4
16/08:00pm 24.3 24.6 18.0 68 4.0 E 13 17 7 9 1012.7 1011.2 2.4
16/07:32pm 23.3 23.8 19.2 78 2.7 NE 15 20 8 11 1013.0 1011.5 2.4
16/07:30pm 23.2 23.6 18.9 77 2.8 NE 15 20 8 11 1013.1 1011.6 2.4
16/07:13pm 23.8 20.7 16.6 64 4.5 WNW 28 54 15 29 1013.5 1012.0 1.4
16/07:11pm 24.0 21.6 16.3 62 4.8 WNW 24 54 13 29 1013.0 1011.5 0.6
16/07:10pm 25.1 23.6 16.8 60 5.2 WNW 20 41 11 22 1012.9 1011.4 0.2
16/07:00pm 30.2 29.0 13.9 37 10.0 S 13 19 7 10 1012.2 1010.7 0.0
16/06:30pm 30.7 28.4 13.0 33 10.7 SSE 17 20 9 11 1011.1 1009.6 0.0
16/06:00pm 32.6 30.7 14.2 32 11.4 S 17 24 9 13 1011.0 1009.5 0.0
16/05:30pm 32.3 29.1 13.0 31 11.7 SSW 22 30 12 16 1010.8 1009.3 0.0
16/05:00pm 34.5 32.7 11.0 24 14.0 SSW 11 15 6 8 1010.8 1009.3 0.0
16/04:30pm 33.7 32.5 11.5 26 13.3 SW 9 15 5 8 1011.3 1009.8 0.0
16/04:00pm 33.9 33.3 10.5 24 13.8 WSW 4 9 2 5 1011.7 1010.3 0.0
16/03:30pm 33.0 31.4 11.5 27 12.8 SW 11 13 6 7 1012.0 1010.5 0.0
16/03:00pm 32.7 31.5 9.5 24 13.4 SE 6 9 3 5 1012.2 1010.7 0.0
16/02:30pm 33.6 32.6 10.9 25 13.4 W 7 17 4 9 1012.6 1011.1 0.0
16/02:00pm 32.4 31.6 11.6 28 12.4 NNW 7 15 4 8 1012.9 1011.4 0.0
16/01:30pm 33.2 32.6 12.2 28 12.7 N 7 11 4 6 1013.2 1011.7 0.0
16/01:00pm 32.2 30.9 11.4 28 12.3 N 9 13 5 7 1013.5 1012.0 0.0
16/12:30pm 32.4 30.6 12.1 29 12.2 NNW 13 20 7 11 1013.6 1012.1 0.0
16/12:00pm 32.8 32.3 13.9 31 11.7 NNW 9 15 5 8 1013.8 1012.3 0.0
16/11:30am 31.6 30.3 12.4 31 11.5 N 11 19 6 10 1014.0 1012.6 0.0
16/11:00am 31.0 30.3 13.3 34 10.8 NE 9 17 5 9 1014.1 1012.7 0.0
16/10:30am 30.8 30.4 14.0 36 10.3 N 9 15 5 8 1014.3 1012.9 0.0
16/10:00am 29.7 29.8 13.9 38 9.6 NNE 6 11 3 6 1014.5 1013.1 0.0
16/09:30am 28.7 29.4 15.6 45 8.2 N 6 9 3 5 1014.7 1013.2 0.0
16/09:00am 27.4 29.2 15.4 48 7.4 CALM 0 0 0 0 1014.9 1013.4 0.0
16/08:30am 25.2 27.6 16.9 60 5.2 CALM 0 6 0 3 1014.5 1013.1 0.0
16/08:00am 23.1 25.3 16.6 67 4.0 CALM 0 6 0 3 1014.4 1013.0 0.0
16/07:30am 20.4 21.1 16.2 77 2.6 SSW 7 9 4 5 1014.3 1012.9 0.0
16/07:00am 18.1 18.5 16.4 90 1.0 S 9 11 5 6 1013.9 1012.5 0.0
16/06:30am 16.1 16.8 15.6 97 0.3 SSW 6 7 3 4 1013.5 1012.0 0.0
16/06:00am 15.0 15.4 14.8 99 0.1 SW 6 7 3 4 1013.3 1011.8 0.0
16/05:30am 15.2 15.6 14.7 97 0.3 SSW 6 7 3 4 1012.9 1011.4 0.0
16/05:00am 16.0 16.6 15.8 99 0.1 S 7 7 4 4 1012.7 1011.2 0.0
16/04:30am 15.9 16.3 15.3 96 0.4 SW 7 7 4 4 1012.5 1011.0 0.0
16/04:00am 16.4 17.0 15.9 97 0.3 S 7 9 4 5 1012.4 1010.9 0.0
16/03:30am 16.7 18.5 15.6 93 0.7 CALM 0 0 0 0 1012.5 1011.0 0.0
16/03:00am 17.2 19.1 15.7 91 0.9 CALM 0 0 0 0 1012.5 1011.0 0.0
16/02:30am 17.6 19.6 16.1 91 0.9 CALM 0 0 0 0 1012.5 1011.0 0.0
16/02:00am 17.9 19.7 16.4 91 0.9 SSW 2 6 1 3 1012.4 1010.9 0.0
16/01:30am 17.9 19.6 16.2 90 1.0 SE 2 7 1 4 1012.7 1011.2 0.0
16/01:00am 17.3 18.0 15.5 89 1.1 N 6 7 3 4 1012.8 1011.3 0.0
16/12:30am 18.6 19.3 16.0 85 1.6 N 7 9 4 5 1012.8 1011.3 0.0
16/12:00am 17.7 18.1 15.3 86 1.4 N 7 9 4 5 1012.8 1011.3 0.0
 
Date/Time
EDT
Temp
°C
App
Temp
°C
Dew
Point
°C
Rel
Hum
%
Delta-T
°C
Wind Press
QNH
hPa
Press
MSL
hPa
Rain since
9am
mm
Dir  Spd
km/h
Gust
km/h
Spd
kts
Gust
kts
15/11:30pm 19.4 21.4 15.9 80 2.1 CALM 0 0 0 0 1012.5 1011.0 0.0
15/11:00pm 20.7 22.7 16.1 75 2.8 CALM 0 7 0 4 1012.4 1010.9 0.0
15/10:30pm 21.9 24.0 16.2 70 3.5 CALM 0 0 0 0 1012.2 1010.7 0.0
15/10:00pm 22.4 23.1 15.7 66 4.1 S 6 7 3 4 1011.8 1010.4 0.0
15/09:30pm 22.8 23.4 15.4 63 4.5 SE 6 7 3 4 1011.8 1010.4 0.0
15/09:00pm 22.8 23.3 15.1 62 4.7 NNE 6 7 3 4 1012.1 1010.6 0.0
15/08:30pm 24.3 23.9 14.1 53 6.1 N 9 15 5 8 1011.7 1010.3 0.0
15/08:00pm 25.4 23.7 13.6 48 7.0 N 15 26 8 14 1011.7 1010.3 0.0
15/07:30pm 25.9 25.1 14.1 48 7.1 N 11 15 6 8 1011.5 1010.0 0.0
15/07:00pm 26.8 24.7 13.5 44 8.0 NNW 17 24 9 13 1011.4 1009.9 0.0
15/06:30pm 27.9 24.6 12.7 39 9.0 NNW 22 43 12 23 1011.1 1009.6 0.0
15/06:00pm 29.6 28.3 12.5 35 10.2 NW 11 20 6 11 1010.3 1008.8 0.0
15/05:30pm 30.2 28.6 11.7 32 10.9 NW 11 20 6 11 1010.1 1008.6 0.0
15/05:00pm 30.5 28.3 13.3 35 10.4 NW 17 26 9 14 1010.2 1008.7 0.0
15/04:30pm 30.7 29.3 12.1 32 11.1 W 11 24 6 13 1010.2 1008.7 0.0
15/04:00pm 30.3 28.5 12.2 33 10.8 NNW 13 28 7 15 1010.2 1008.7 0.0
15/03:30pm 31.3 29.5 12.2 31 11.4 NW 13 26 7 14 1010.3 1008.8 0.0
15/03:00pm 31.5 29.6 14.2 35 10.7 NNW 17 26 9 14 1010.5 1009.0 0.0
15/02:30pm 30.9 29.3 12.8 33 10.9 NW 13 20 7 11 1010.7 1009.2 0.0
15/02:00pm 30.7 29.0 12.6 33 10.9 NNE 13 19 7 10 1011.0 1009.5 0.0
15/01:30pm 30.7 29.8 12.6 33 10.9 NE 9 13 5 7 1011.3 1009.8 0.0
15/01:00pm 30.1 29.7 12.5 34 10.5 NE 6 11 3 6 1011.7 1010.3 0.0
15/12:30pm 29.5 28.4 12.0 34 10.4 N 9 17 5 9 1012.1 1010.6 0.0
15/12:00pm 30.2 31.0 14.7 39 9.6 SE 4 11 2 6 1012.5 1011.0 0.0
15/11:30am 28.4 26.5 13.1 39 9.2 ENE 15 20 8 11 1012.8 1011.3 0.0
15/11:00am 28.1 26.0 14.7 44 8.2 NE 19 22 10 12 1012.7 1011.2 0.0
15/10:30am 26.1 26.0 14.9 50 6.8 ENE 9 15 5 8 1013.2 1011.7 0.0
15/10:00am 25.9 24.8 14.4 49 7.0 ENE 13 17 7 9 1012.8 1011.3 0.0
15/09:30am 26.6 24.4 14.4 47 7.4 E 19 28 10 15 1012.6 1011.1 0.0
15/09:00am 25.6 23.4 14.4 50 6.8 E 19 32 10 17 1012.3 1010.8 0.0
15/08:30am 24.7 23.6 14.2 52 6.3 E 13 20 7 11 1012.2 1010.7 0.0
15/08:00am 23.2 23.7 15.5 62 4.7 SE 7 13 4 7 1012.2 1010.7 0.0
15/07:30am 21.1 20.6 15.9 72 3.2 SSE 13 15 7 8 1012.7 1011.2 0.0
15/07:00am 20.1 21.8 17.1 83 1.9 SSW 4 6 2 3 1012.6 1011.1 0.0
15/06:30am 20.5 21.3 16.3 77 2.6 SW 7 11 4 6 1011.8 1010.4 0.0
15/06:00am 20.4 22.2 15.6 74 2.9 CALM 0 6 0 3 1011.2 1009.7 0.0
15/05:30am 21.0 21.7 15.5 71 3.3 W 6 9 3 5 1011.2 1009.7 0.0
15/05:00am 21.5 22.0 14.9 66 4.0 SW 6 7 3 4 1010.6 1009.1 0.0
15/04:30am 22.2 22.1 13.8 59 5.0 SW 7 9 4 5 1010.6 1009.1 0.0
15/04:00am 22.4 22.2 13.5 57 5.2 SSW 7 9 4 5 1010.3 1008.8 0.0
15/03:30am 22.8 22.7 13.3 55 5.6 S 6 7 3 4 1010.3 1008.8 0.0
15/03:00am 23.3 23.0 13.2 53 5.9 SSE 7 11 4 6 1010.2 1008.7 0.0
15/02:30am 23.9 22.4 13.2 51 6.3 SSW 13 17 7 9 1010.2 1008.7 0.0
15/02:00am 23.7 22.2 13.0 51 6.3 SSW 13 15 7 8 1010.3 1008.8 0.0
15/01:30am 23.8 21.4 12.8 50 6.4 SSW 17 20 9 11 1010.5 1009.0 0.0
15/01:00am 23.2 22.0 12.8 52 6.1 SSW 11 17 6 9 1010.9 1009.4 0.0
15/12:30am 24.0 22.3 12.3 48 6.8 SSW 13 15 7 8 1010.9 1009.4 0.0
15/12:00am 24.6 22.9 12.5 46 7.1 SSW 13 17 7 9 1011.2 1009.7 0.0
 
Date/Time
EDT
Temp
°C
App
Temp
°C
Dew
Point
°C
Rel
Hum
%
Delta-T
°C
Wind Press
QNH
hPa
Press
MSL
hPa
Rain since
9am
mm
Dir  Spd
km/h
Gust
km/h
Spd
kts
Gust
kts
14/11:30pm 24.9 23.9 12.2 45 7.4 SSW 9 13 5 7 1011.3 1009.8 0.0
14/11:00pm 25.3 23.3 11.5 42 8.0 SW 13 19 7 10 1011.3 1009.8 0.0
14/10:30pm 26.1 23.4 10.3 37 9.0 SW 15 22 8 12 1010.9 1009.4 0.0
14/10:00pm 27.1 23.4 10.3 35 9.6 SW 20 30 11 16 1010.6 1009.1 0.0
14/09:30pm 25.2 26.1 15.2 54 6.1 SW 4 20 2 11 1010.2 1008.7 0.0
14/09:00pm 26.2 26.5 14.6 48 7.1 NNW 6 7 3 4 1009.7 1008.2 0.0
14/08:30pm 27.0 27.0 15.1 48 7.3 N 9 11 5 6 1009.3 1007.8 0.0
14/08:00pm 27.1 27.4 15.1 47 7.4 NNW 7 11 4 6 1009.0 1007.5 0.0
14/07:30pm 27.9 30.0 17.1 51 6.9 N 2 7 1 4 1008.2 1006.7 0.0
14/07:00pm 28.5 30.4 16.7 48 7.5 NNE 2 9 1 5 1008.0 1006.5 0.0
14/06:30pm 28.9 30.0 17.1 49 7.5 N 7 11 4 6 1007.6 1006.1 0.0
14/06:00pm 30.3 29.9 14.0 37 10.0 N 9 13 5 7 1007.2 1005.7 0.0
14/05:30pm 29.4 27.2 13.2 37 9.8 N 17 24 9 13 1007.2 1005.7 0.0
14/05:00pm 29.9 26.9 11.9 33 10.7 N 19 28 10 15 1007.4 1005.9 0.0
14/04:30pm 29.7 27.0 11.7 33 10.6 NNW 17 35 9 19 1007.3 1005.8 0.0
14/04:00pm 30.4 24.3 10.4 29 11.6 NW 33 59 18 32 1007.6 1006.1 0.0
14/03:58pm 31.5 26.2 9.7 26 12.6 NW 28 59 15 32 1007.5 1006.0 0.0
14/03:56pm 33.3 28.6 9.4 23 13.8 NNW 24 59 13 32 1007.2 1005.7 0.0
14/03:30pm 34.6 29.3 9.8 22 14.5 NNW 28 41 15 22 1006.6 1005.0 0.0
14/03:00pm 35.5 30.7 11.8 24 14.4 N 28 46 15 25 1007.0 1005.5 0.0
14/02:52pm 34.2 29.0 10.1 23 14.1 NNW 28 46 15 25 1007.1 1005.6 0.0
14/02:30pm 34.8 29.9 11.2 24 14.1 NNW 28 41 15 22 1007.5 1006.0 0.0
14/02:10pm 34.0 28.7 9.9 23 14.1 NNW 28 46 15 25 1007.6 1006.1 0.0
14/02:00pm 34.5 28.6 11.0 24 14.0 NNW 33 48 18 26 1007.5 1006.0 0.0
14/01:51pm 33.8 28.3 10.4 24 13.8 NNW 30 48 16 26 1007.5 1006.0 0.0
14/01:30pm 33.2 28.2 11.1 26 13.1 N 28 41 15 22 1007.7 1006.2 0.0
14/01:03pm 33.8 29.3 12.7 27 12.8 N 28 46 15 25 1008.1 1006.6 0.0
14/01:00pm 33.2 27.5 11.1 26 13.1 N 32 46 17 25 1008.1 1006.6 0.0
14/12:32pm 33.5 28.1 9.5 23 13.9 NNW 28 48 15 26 1008.5 1007.0 0.0
14/12:30pm 33.7 28.7 10.9 25 13.5 NNW 28 44 15 24 1008.6 1007.1 0.0
14/12:08pm 33.7 29.0 12.1 27 13.0 N 28 46 15 25 1008.9 1007.4 0.0
14/12:00pm 32.8 28.1 11.9 28 12.5 NNW 28 43 15 23 1009.0 1007.5 0.0
14/11:30am 30.4 26.1 10.9 30 11.4 N 24 37 13 20 1009.5 1008.0 0.0
14/11:00am 31.0 27.1 10.9 29 11.8 NNW 22 33 12 18 1009.8 1008.3 0.0
14/10:30am 30.1 26.3 11.1 31 11.1 NNW 22 30 12 16 1010.1 1008.6 0.0
14/10:00am 28.0 25.9 12.4 38 9.2 N 15 20 8 11 1009.8 1008.3 0.0
14/09:30am 27.5 26.6 12.7 40 8.8 N 9 15 5 8 1010.2 1008.7 0.0
14/09:00am 28.1 26.0 11.2 35 9.8 N 13 20 7 11 1010.3 1008.8 0.0
14/08:30am 27.9 25.4 11.0 35 9.8 N 15 24 8 13 1010.1 1008.6 -
14/08:00am 26.6 25.5 13.0 43 8.1 N 11 17 6 9 1010.2 1008.7 -
14/07:30am 23.5 25.4 15.8 62 4.7 CALM 0 7 0 4 1010.0 1008.5 -
14/07:00am 19.2 21.1 15.7 80 2.1 CALM 0 0 0 0 1009.6 1008.1 -
14/06:30am 17.6 19.2 15.0 85 1.5 CALM 0 0 0 0 1009.2 1007.6 -
14/06:00am 15.5 16.6 13.5 88 1.1 CALM 0 0 0 0 1008.8 1007.3 -
14/05:30am 16.0 17.3 14.0 88 1.2 CALM 0 0 0 0 1008.5 1007.0 -
14/05:00am 16.5 17.9 14.3 87 1.3 CALM 0 0 0 0 1008.1 1006.6 -
14/04:30am 16.6 17.3 14.4 87 1.3 SSW 4 7 2 4 1007.9 1006.4 -
14/04:00am 16.6 18.1 14.6 88 1.2 CALM 0 0 0 0 1007.7 1006.2 -
14/03:30am 16.8 17.0 14.3 85 1.5 SW 6 7 3 4 1007.8 1006.3 -
14/03:00am 17.7 18.6 15.1 85 1.5 S 4 6 2 3 1007.9 1006.4 0.0
14/02:30am 18.2 18.5 15.1 82 1.8 SW 7 9 4 5 1008.1 1006.6 -
14/02:00am 18.8 20.7 15.7 82 1.9 CALM 0 2 0 1 1008.2 1006.7 -
14/01:30am 19.3 21.0 16.2 82 1.9 SSE 2 7 1 4 1008.7 1007.2 -
14/01:00am 19.6 19.9 15.9 79 2.2 SSW 9 11 5 6 1008.9 1007.4 -
14/12:30am 19.6 21.6 15.9 79 2.2 CALM 0 0 0 0 1009.0 1007.5 -
14/12:00am 19.8 21.8 16.1 79 2.3 CALM 0 0 0 0 1009.2 1007.6 -

Other Formats:

Comma delimited format used in spreadsheet applications
http://www.bom.gov.au/fwo/IDN60801/IDN60801.94712.axf

JavaScript Object Notation format (JSON) in row-major order
http://www.bom.gov.au/fwo/IDN60801/IDN60801.94712.json